DEN weather

Denver International Airport
Denver, Colorado, United States

Public forecast

Using degrees Fahrenheit for public forecast. Weather courtesy of forecast.io.

METAR (pilot weather report)

Retrieved 2017/11/24 12:53 UTC (26 minutes ago):

KDEN 241253Z 27007KT 10SM SCT160 BKN250 15/M09 A2982 RMK AO2 SLP052 T01501094

TAF (pilot weather forecast)

Retrieved 2017/11/24 12:27 UTC (52 minutes ago):

TAF KDEN 241123Z 2412/2518 25006KT P6SM SCT250 FM241900 34010G18KT P6SM FEW140 SCT220 FM242100 30015G28KT P6SM FEW080 SCT220 FM250100 03012KT P6SM SCT120 BKN200 FM250600 08010KT P6SM FEW140 SCT220 FM251200 18008KT P6SM SCT140 BKN220 FM251600 22006KT P6SM SCT140 BKN220